sensor_id;sensor_type;location;lat;lon;timestamp;P1;durP1;ratioP1;P2;durP2;ratioP2
26908;SDS011;14477;51.038;4.588;2022-11-20T00:01:18;9.20;;;4.80;;
26908;SDS011;14477;51.038;4.588;2022-11-20T00:03:48;9.68;;;5.22;;
26908;SDS011;14477;51.038;4.588;2022-11-20T00:06:15;9.07;;;5.03;;
26908;SDS011;14477;51.038;4.588;2022-11-20T00:08:42;9.30;;;4.40;;
26908;SDS011;14477;51.038;4.588;2022-11-20T00:11:12;8.75;;;4.93;;
26908;SDS011;14477;51.038;4.588;2022-11-20T00:13:43;9.33;;;4.90;;
26908;SDS011;14477;51.038;4.588;2022-11-20T00:16:09;10.13;;;4.95;;
26908;SDS011;14477;51.038;4.588;2022-11-20T00:18:36;10.32;;;5.18;;
26908;SDS011;14477;51.038;4.588;2022-11-20T00:21:06;9.33;;;4.90;;
26908;SDS011;14477;51.038;4.588;2022-11-20T00:23:36;10.40;;;5.30;;
26908;SDS011;14477;51.038;4.588;2022-11-20T00:26:05;9.18;;;5.10;;
26908;SDS011;14477;51.038;4.588;2022-11-20T00:28:32;10.25;;;5.47;;
26908;SDS011;14477;51.038;4.588;2022-11-20T00:31:05;10.67;;;5.07;;
26908;SDS011;14477;51.038;4.588;2022-11-20T00:33:34;8.85;;;4.72;;
26908;SDS011;14477;51.038;4.588;2022-11-20T00:36:03;8.73;;;4.80;;
26908;SDS011;14477;51.038;4.588;2022-11-20T00:38:31;10.55;;;4.78;;
26908;SDS011;14477;51.038;4.588;2022-11-20T00:40:57;9.30;;;4.93;;
26908;SDS011;14477;51.038;4.588;2022-11-20T00:43:24;9.52;;;4.88;;
26908;SDS011;14477;51.038;4.588;2022-11-20T00:45:50;9.30;;;4.88;;
26908;SDS011;14477;51.038;4.588;2022-11-20T00:48:20;8.70;;;4.73;;
26908;SDS011;14477;51.038;4.588;2022-11-20T00:50:46;9.25;;;5.07;;
26908;SDS011;14477;51.038;4.588;2022-11-20T00:53:12;8.47;;;4.60;;
26908;SDS011;14477;51.038;4.588;2022-11-20T00:55:37;9.85;;;5.00;;
26908;SDS011;14477;51.038;4.588;2022-11-20T00:58:03;8.77;;;5.00;;
26908;SDS011;14477;51.038;4.588;2022-11-20T01:00:28;9.00;;;4.80;;
26908;SDS011;14477;51.038;4.588;2022-11-20T01:02:55;10.05;;;4.72;;
26908;SDS011;14477;51.038;4.588;2022-11-20T01:05:21;9.57;;;5.03;;
26908;SDS011;14477;51.038;4.588;2022-11-20T01:07:46;10.23;;;5.30;;
26908;SDS011;14477;51.038;4.588;2022-11-20T01:10:12;8.47;;;4.87;;
26908;SDS011;14477;51.038;4.588;2022-11-20T01:12:38;9.27;;;4.57;;
26908;SDS011;14477;51.038;4.588;2022-11-20T01:15:03;9.30;;;5.10;;
26908;SDS011;14477;51.038;4.588;2022-11-20T01:17:30;9.50;;;4.90;;
26908;SDS011;14477;51.038;4.588;2022-11-20T01:19:57;9.85;;;5.30;;
26908;SDS011;14477;51.038;4.588;2022-11-20T01:22:22;7.80;;;4.57;;
26908;SDS011;14477;51.038;4.588;2022-11-20T01:24:48;9.38;;;4.90;;
26908;SDS011;14477;51.038;4.588;2022-11-20T01:27:13;8.77;;;4.73;;
26908;SDS011;14477;51.038;4.588;2022-11-20T01:29:39;8.77;;;4.87;;
26908;SDS011;14477;51.038;4.588;2022-11-20T01:32:04;9.67;;;4.83;;
26908;SDS011;14477;51.038;4.588;2022-11-20T01:34:30;8.87;;;4.63;;
26908;SDS011;14477;51.038;4.588;2022-11-20T01:36:56;9.25;;;4.70;;
26908;SDS011;14477;51.038;4.588;2022-11-20T01:39:23;9.80;;;4.90;;
26908;SDS011;14477;51.038;4.588;2022-11-20T01:41:51;9.68;;;5.25;;
26908;SDS011;14477;51.038;4.588;2022-11-20T01:44:48;9.52;;;5.00;;
26908;SDS011;14477;51.038;4.588;2022-11-20T01:47:21;8.85;;;4.47;;
26908;SDS011;14477;51.038;4.588;2022-11-20T01:49:49;9.23;;;4.60;;
26908;SDS011;14477;51.038;4.588;2022-11-20T01:52:33;8.33;;;4.57;;
26908;SDS011;14477;51.038;4.588;2022-11-20T01:57:34;8.88;;;4.97;;
26908;SDS011;14477;51.038;4.588;2022-11-20T02:00:03;10.82;;;5.03;;
26908;SDS011;14477;51.038;4.588;2022-11-20T02:02:32;9.07;;;4.95;;
26908;SDS011;14477;51.038;4.588;2022-11-20T02:04:59;10.07;;;4.80;;
26908;SDS011;14477;51.038;4.588;2022-11-20T02:07:29;12.10;;;4.97;;
26908;SDS011;14477;51.038;4.588;2022-11-20T02:09:55;10.50;;;5.18;;
26908;SDS011;14477;51.038;4.588;2022-11-20T02:12:21;9.20;;;4.77;;
26908;SDS011;14477;51.038;4.588;2022-11-20T02:15:05;9.10;;;5.10;;
26908;SDS011;14477;51.038;4.588;2022-11-20T02:17:31;9.40;;;4.90;;
26908;SDS011;14477;51.038;4.588;2022-11-20T02:19:57;9.33;;;4.93;;
26908;SDS011;14477;51.038;4.588;2022-11-20T02:22:30;9.73;;;5.20;;
26908;SDS011;14477;51.038;4.588;2022-11-20T02:25:04;9.63;;;4.78;;
26908;SDS011;14477;51.038;4.588;2022-11-20T02:27:31;9.97;;;5.27;;
26908;SDS011;14477;51.038;4.588;2022-11-20T02:29:59;9.15;;;4.50;;
26908;SDS011;14477;51.038;4.588;2022-11-20T02:32:30;9.57;;;4.90;;
26908;SDS011;14477;51.038;4.588;2022-11-20T02:34:57;9.45;;;5.28;;
26908;SDS011;14477;51.038;4.588;2022-11-20T02:37:23;9.47;;;5.00;;
26908;SDS011;14477;51.038;4.588;2022-11-20T02:39:55;9.00;;;4.72;;
26908;SDS011;14477;51.038;4.588;2022-11-20T02:42:21;9.90;;;5.10;;
26908;SDS011;14477;51.038;4.588;2022-11-20T02:44:46;10.87;;;5.20;;
26908;SDS011;14477;51.038;4.588;2022-11-20T02:47:12;8.37;;;4.40;;
26908;SDS011;14477;51.038;4.588;2022-11-20T02:49:38;9.45;;;4.82;;
26908;SDS011;14477;51.038;4.588;2022-11-20T02:52:03;9.53;;;4.70;;
26908;SDS011;14477;51.038;4.588;2022-11-20T02:54:29;9.60;;;4.90;;
26908;SDS011;14477;51.038;4.588;2022-11-20T02:56:55;10.37;;;5.53;;
26908;SDS011;14477;51.038;4.588;2022-11-20T02:59:21;9.90;;;5.05;;
26908;SDS011;14477;51.038;4.588;2022-11-20T03:01:47;9.73;;;4.57;;
26908;SDS011;14477;51.038;4.588;2022-11-20T03:04:12;10.63;;;5.43;;
26908;SDS011;14477;51.038;4.588;2022-11-20T03:06:38;10.53;;;5.47;;
26908;SDS011;14477;51.038;4.588;2022-11-20T03:09:04;10.13;;;5.47;;
26908;SDS011;14477;51.038;4.588;2022-11-20T03:11:30;9.67;;;5.33;;
26908;SDS011;14477;51.038;4.588;2022-11-20T03:13:56;9.93;;;5.05;;
26908;SDS011;14477;51.038;4.588;2022-11-20T03:16:22;11.77;;;6.10;;
26908;SDS011;14477;51.038;4.588;2022-11-20T03:18:48;9.95;;;5.22;;
26908;SDS011;14477;51.038;4.588;2022-11-20T03:21:16;9.77;;;4.95;;
26908;SDS011;14477;51.038;4.588;2022-11-20T03:23:42;9.60;;;5.10;;
26908;SDS011;14477;51.038;4.588;2022-11-20T03:26:13;10.97;;;5.70;;
26908;SDS011;14477;51.038;4.588;2022-11-20T03:28:41;10.23;;;5.43;;
26908;SDS011;14477;51.038;4.588;2022-11-20T03:31:11;10.02;;;5.15;;
26908;SDS011;14477;51.038;4.588;2022-11-20T03:33:39;10.63;;;5.40;;
26908;SDS011;14477;51.038;4.588;2022-11-20T03:36:07;9.65;;;5.40;;
26908;SDS011;14477;51.038;4.588;2022-11-20T03:38:34;10.63;;;5.32;;
26908;SDS011;14477;51.038;4.588;2022-11-20T03:41:01;8.57;;;4.60;;
26908;SDS011;14477;51.038;4.588;2022-11-20T03:43:29;10.48;;;5.25;;
26908;SDS011;14477;51.038;4.588;2022-11-20T03:45:55;10.10;;;5.13;;
26908;SDS011;14477;51.038;4.588;2022-11-20T03:48:21;11.80;;;5.80;;
26908;SDS011;14477;51.038;4.588;2022-11-20T03:50:47;9.83;;;5.17;;
26908;SDS011;14477;51.038;4.588;2022-11-20T03:53:13;11.05;;;5.28;;
26908;SDS011;14477;51.038;4.588;2022-11-20T03:55:39;13.35;;;5.82;;
26908;SDS011;14477;51.038;4.588;2022-11-20T03:58:05;11.50;;;5.90;;
26908;SDS011;14477;51.038;4.588;2022-11-20T04:00:30;11.17;;;5.27;;
26908;SDS011;14477;51.038;4.588;2022-11-20T04:03:00;13.47;;;6.37;;
26908;SDS011;14477;51.038;4.588;2022-11-20T04:05:26;25.85;;;7.35;;
26908;SDS011;14477;51.038;4.588;2022-11-20T04:07:52;12.00;;;5.57;;
26908;SDS011;14477;51.038;4.588;2022-11-20T04:10:17;11.35;;;5.15;;
26908;SDS011;14477;51.038;4.588;2022-11-20T04:12:43;11.53;;;5.27;;
26908;SDS011;14477;51.038;4.588;2022-11-20T04:15:08;11.23;;;5.47;;
26908;SDS011;14477;51.038;4.588;2022-11-20T04:17:34;11.83;;;5.60;;
26908;SDS011;14477;51.038;4.588;2022-11-20T04:20:00;11.80;;;6.03;;
26908;SDS011;14477;51.038;4.588;2022-11-20T04:22:26;10.93;;;5.83;;
26908;SDS011;14477;51.038;4.588;2022-11-20T04:24:51;12.57;;;5.97;;
26908;SDS011;14477;51.038;4.588;2022-11-20T04:27:17;11.90;;;5.57;;
26908;SDS011;14477;51.038;4.588;2022-11-20T04:29:43;11.23;;;5.50;;
26908;SDS011;14477;51.038;4.588;2022-11-20T04:32:09;12.30;;;5.83;;
26908;SDS011;14477;51.038;4.588;2022-11-20T04:34:34;12.15;;;5.90;;
26908;SDS011;14477;51.038;4.588;2022-11-20T04:37:00;11.40;;;5.50;;
26908;SDS011;14477;51.038;4.588;2022-11-20T04:39:26;10.05;;;5.07;;
26908;SDS011;14477;51.038;4.588;2022-11-20T04:41:51;12.43;;;5.53;;
26908;SDS011;14477;51.038;4.588;2022-11-20T04:44:37;14.60;;;5.60;;
26908;SDS011;14477;51.038;4.588;2022-11-20T04:47:02;12.98;;;5.60;;
26908;SDS011;14477;51.038;4.588;2022-11-20T04:49:28;13.33;;;5.83;;
26908;SDS011;14477;51.038;4.588;2022-11-20T04:51:54;14.45;;;6.50;;
26908;SDS011;14477;51.038;4.588;2022-11-20T04:54:19;12.23;;;5.63;;
26908;SDS011;14477;51.038;4.588;2022-11-20T04:56:47;11.40;;;5.10;;
26908;SDS011;14477;51.038;4.588;2022-11-20T04:59:13;13.52;;;6.00;;
26908;SDS011;14477;51.038;4.588;2022-11-20T05:01:38;11.73;;;5.43;;
26908;SDS011;14477;51.038;4.588;2022-11-20T05:04:04;11.67;;;5.17;;
26908;SDS011;14477;51.038;4.588;2022-11-20T05:06:30;11.45;;;5.25;;
26908;SDS011;14477;51.038;4.588;2022-11-20T05:08:56;12.35;;;5.45;;
26908;SDS011;14477;51.038;4.588;2022-11-20T05:11:22;12.63;;;5.55;;
26908;SDS011;14477;51.038;4.588;2022-11-20T05:13:49;12.77;;;5.60;;
26908;SDS011;14477;51.038;4.588;2022-11-20T05:16:16;11.98;;;5.55;;
26908;SDS011;14477;51.038;4.588;2022-11-20T05:18:49;12.60;;;5.32;;
26908;SDS011;14477;51.038;4.588;2022-11-20T05:21:16;10.95;;;5.15;;
26908;SDS011;14477;51.038;4.588;2022-11-20T05:23:42;11.40;;;5.30;;
26908;SDS011;14477;51.038;4.588;2022-11-20T05:26:12;13.20;;;5.50;;
26908;SDS011;14477;51.038;4.588;2022-11-20T05:28:42;12.73;;;5.35;;
26908;SDS011;14477;51.038;4.588;2022-11-20T05:31:13;12.07;;;6.00;;
26908;SDS011;14477;51.038;4.588;2022-11-20T05:33:41;13.00;;;5.95;;
26908;SDS011;14477;51.038;4.588;2022-11-20T05:36:07;13.55;;;5.80;;
26908;SDS011;14477;51.038;4.588;2022-11-20T05:38:34;12.17;;;5.63;;
26908;SDS011;14477;51.038;4.588;2022-11-20T05:41:04;12.00;;;5.78;;
26908;SDS011;14477;51.038;4.588;2022-11-20T05:43:34;13.27;;;6.05;;
26908;SDS011;14477;51.038;4.588;2022-11-20T05:46:00;11.20;;;5.05;;
26908;SDS011;14477;51.038;4.588;2022-11-20T05:48:26;14.53;;;6.07;;
26908;SDS011;14477;51.038;4.588;2022-11-20T05:50:52;11.98;;;5.93;;
26908;SDS011;14477;51.038;4.588;2022-11-20T05:53:18;11.70;;;5.73;;
26908;SDS011;14477;51.038;4.588;2022-11-20T05:55:43;13.80;;;5.85;;
26908;SDS011;14477;51.038;4.588;2022-11-20T05:58:09;12.00;;;5.37;;
26908;SDS011;14477;51.038;4.588;2022-11-20T06:00:35;11.57;;;5.43;;
26908;SDS011;14477;51.038;4.588;2022-11-20T06:03:01;12.40;;;5.97;;
26908;SDS011;14477;51.038;4.588;2022-11-20T06:05:27;15.07;;;5.95;;
26908;SDS011;14477;51.038;4.588;2022-11-20T06:07:52;13.17;;;5.97;;
26908;SDS011;14477;51.038;4.588;2022-11-20T06:10:18;11.55;;;5.28;;
26908;SDS011;14477;51.038;4.588;2022-11-20T06:12:43;11.90;;;5.33;;
26908;SDS011;14477;51.038;4.588;2022-11-20T06:15:09;13.75;;;5.43;;
26908;SDS011;14477;51.038;4.588;2022-11-20T06:17:35;10.50;;;5.00;;
26908;SDS011;14477;51.038;4.588;2022-11-20T06:20:00;14.13;;;5.82;;
26908;SDS011;14477;51.038;4.588;2022-11-20T06:22:26;13.03;;;6.03;;
26908;SDS011;14477;51.038;4.588;2022-11-20T06:24:52;12.85;;;5.80;;
26908;SDS011;14477;51.038;4.588;2022-11-20T06:27:17;11.90;;;5.70;;
26908;SDS011;14477;51.038;4.588;2022-11-20T06:29:43;13.63;;;5.43;;
26908;SDS011;14477;51.038;4.588;2022-11-20T06:32:08;12.20;;;5.55;;
26908;SDS011;14477;51.038;4.588;2022-11-20T06:34:34;11.17;;;4.77;;
26908;SDS011;14477;51.038;4.588;2022-11-20T06:37:00;12.93;;;6.15;;
26908;SDS011;14477;51.038;4.588;2022-11-20T06:39:25;13.47;;;6.07;;
26908;SDS011;14477;51.038;4.588;2022-11-20T06:41:51;13.57;;;5.90;;
26908;SDS011;14477;51.038;4.588;2022-11-20T06:44:16;11.43;;;5.20;;
26908;SDS011;14477;51.038;4.588;2022-11-20T06:46:42;12.37;;;6.00;;
26908;SDS011;14477;51.038;4.588;2022-11-20T06:49:08;11.38;;;5.38;;
26908;SDS011;14477;51.038;4.588;2022-11-20T06:51:33;13.00;;;5.67;;
26908;SDS011;14477;51.038;4.588;2022-11-20T06:53:59;13.25;;;5.97;;
26908;SDS011;14477;51.038;4.588;2022-11-20T06:56:25;13.87;;;6.10;;
26908;SDS011;14477;51.038;4.588;2022-11-20T06:58:51;13.75;;;5.80;;
26908;SDS011;14477;51.038;4.588;2022-11-20T07:01:17;13.70;;;6.20;;
26908;SDS011;14477;51.038;4.588;2022-11-20T07:03:43;13.95;;;6.05;;
26908;SDS011;14477;51.038;4.588;2022-11-20T07:06:08;13.37;;;6.07;;
26908;SDS011;14477;51.038;4.588;2022-11-20T07:08:34;13.50;;;6.35;;
26908;SDS011;14477;51.038;4.588;2022-11-20T07:11:01;15.60;;;6.10;;
26908;SDS011;14477;51.038;4.588;2022-11-20T07:13:29;14.80;;;6.50;;
26908;SDS011;14477;51.038;4.588;2022-11-20T07:15:55;14.30;;;6.45;;
26908;SDS011;14477;51.038;4.588;2022-11-20T07:18:23;13.35;;;6.05;;
26908;SDS011;14477;51.038;4.588;2022-11-20T07:20:49;14.60;;;5.97;;
26908;SDS011;14477;51.038;4.588;2022-11-20T07:23:14;14.15;;;6.30;;
26908;SDS011;14477;51.038;4.588;2022-11-20T07:25:40;14.27;;;6.50;;
26908;SDS011;14477;51.038;4.588;2022-11-20T07:28:06;15.35;;;6.57;;
26908;SDS011;14477;51.038;4.588;2022-11-20T07:30:31;13.63;;;5.77;;
26908;SDS011;14477;51.038;4.588;2022-11-20T07:32:57;13.23;;;6.37;;
26908;SDS011;14477;51.038;4.588;2022-11-20T07:35:23;15.60;;;6.47;;
26908;SDS011;14477;51.038;4.588;2022-11-20T07:37:49;13.10;;;5.72;;
26908;SDS011;14477;51.038;4.588;2022-11-20T07:40:16;13.43;;;6.18;;
26908;SDS011;14477;51.038;4.588;2022-11-20T07:42:49;12.97;;;6.50;;
26908;SDS011;14477;51.038;4.588;2022-11-20T07:45:19;13.90;;;6.10;;
26908;SDS011;14477;51.038;4.588;2022-11-20T07:47:46;12.18;;;5.28;;
26908;SDS011;14477;51.038;4.588;2022-11-20T07:50:12;14.23;;;6.38;;
26908;SDS011;14477;51.038;4.588;2022-11-20T07:52:38;13.10;;;5.80;;
26908;SDS011;14477;51.038;4.588;2022-11-20T07:55:04;14.93;;;6.53;;
26908;SDS011;14477;51.038;4.588;2022-11-20T07:57:30;15.07;;;6.50;;
26908;SDS011;14477;51.038;4.588;2022-11-20T07:59:56;13.13;;;5.57;;
26908;SDS011;14477;51.038;4.588;2022-11-20T08:02:22;13.27;;;5.82;;
26908;SDS011;14477;51.038;4.588;2022-11-20T08:04:47;14.17;;;6.37;;
26908;SDS011;14477;51.038;4.588;2022-11-20T08:07:13;13.63;;;6.47;;
26908;SDS011;14477;51.038;4.588;2022-11-20T08:09:39;14.50;;;6.63;;
26908;SDS011;14477;51.038;4.588;2022-11-20T08:12:04;15.45;;;6.38;;
26908;SDS011;14477;51.038;4.588;2022-11-20T08:14:49;12.43;;;5.50;;
26908;SDS011;14477;51.038;4.588;2022-11-20T08:17:15;12.88;;;6.22;;
26908;SDS011;14477;51.038;4.588;2022-11-20T08:19:40;13.60;;;6.17;;
26908;SDS011;14477;51.038;4.588;2022-11-20T08:22:06;11.48;;;5.45;;
26908;SDS011;14477;51.038;4.588;2022-11-20T08:24:31;13.13;;;5.70;;
26908;SDS011;14477;51.038;4.588;2022-11-20T08:27:00;13.30;;;6.43;;
26908;SDS011;14477;51.038;4.588;2022-11-20T08:29:26;14.50;;;6.65;;
26908;SDS011;14477;51.038;4.588;2022-11-20T08:31:52;13.82;;;6.22;;
26908;SDS011;14477;51.038;4.588;2022-11-20T08:34:17;14.53;;;5.83;;
26908;SDS011;14477;51.038;4.588;2022-11-20T08:36:43;14.25;;;6.38;;
26908;SDS011;14477;51.038;4.588;2022-11-20T08:39:12;13.57;;;5.50;;
26908;SDS011;14477;51.038;4.588;2022-11-20T08:41:38;14.57;;;6.03;;
26908;SDS011;14477;51.038;4.588;2022-11-20T08:44:05;15.40;;;6.03;;
26908;SDS011;14477;51.038;4.588;2022-11-20T08:46:33;12.90;;;5.47;;
26908;SDS011;14477;51.038;4.588;2022-11-20T08:49:04;14.88;;;5.85;;
26908;SDS011;14477;51.038;4.588;2022-11-20T08:51:31;14.48;;;5.57;;
26908;SDS011;14477;51.038;4.588;2022-11-20T08:53:57;14.75;;;6.25;;
26908;SDS011;14477;51.038;4.588;2022-11-20T08:56:23;15.50;;;6.73;;
26908;SDS011;14477;51.038;4.588;2022-11-20T08:58:49;13.07;;;6.15;;
26908;SDS011;14477;51.038;4.588;2022-11-20T09:01:17;15.15;;;6.15;;
26908;SDS011;14477;51.038;4.588;2022-11-20T09:03:43;15.27;;;6.30;;
26908;SDS011;14477;51.038;4.588;2022-11-20T09:06:09;14.67;;;6.53;;
26908;SDS011;14477;51.038;4.588;2022-11-20T09:08:35;15.55;;;6.85;;
26908;SDS011;14477;51.038;4.588;2022-11-20T09:11:01;13.50;;;5.60;;
26908;SDS011;14477;51.038;4.588;2022-11-20T09:13:28;16.27;;;6.43;;
26908;SDS011;14477;51.038;4.588;2022-11-20T09:16:15;16.23;;;6.20;;
26908;SDS011;14477;51.038;4.588;2022-11-20T09:18:40;17.52;;;6.60;;
26908;SDS011;14477;51.038;4.588;2022-11-20T09:21:06;16.07;;;5.90;;
26908;SDS011;14477;51.038;4.588;2022-11-20T09:23:39;16.67;;;6.63;;
26908;SDS011;14477;51.038;4.588;2022-11-20T09:26:05;15.52;;;6.07;;
26908;SDS011;14477;51.038;4.588;2022-11-20T09:28:38;15.85;;;6.03;;
26908;SDS011;14477;51.038;4.588;2022-11-20T09:31:05;17.10;;;6.67;;
26908;SDS011;14477;51.038;4.588;2022-11-20T09:33:31;16.02;;;6.05;;
26908;SDS011;14477;51.038;4.588;2022-11-20T09:35:59;18.05;;;6.82;;
26908;SDS011;14477;51.038;4.588;2022-11-20T09:38:25;16.70;;;6.57;;
26908;SDS011;14477;51.038;4.588;2022-11-20T09:41:04;16.20;;;6.30;;
26908;SDS011;14477;51.038;4.588;2022-11-20T09:45:58;14.73;;;5.70;;
26908;SDS011;14477;51.038;4.588;2022-11-20T09:51:57;15.57;;;5.72;;
26908;SDS011;14477;51.038;4.588;2022-11-20T09:54:29;16.88;;;6.00;;
26908;SDS011;14477;51.038;4.588;2022-11-20T09:57:11;18.90;;;6.63;;
26908;SDS011;14477;51.038;4.588;2022-11-20T09:59:40;16.90;;;6.70;;
26908;SDS011;14477;51.038;4.588;2022-11-20T10:02:28;17.45;;;7.07;;
26908;SDS011;14477;51.038;4.588;2022-11-20T10:05:21;17.08;;;6.18;;
26908;SDS011;14477;51.038;4.588;2022-11-20T10:08:12;13.63;;;5.10;;
26908;SDS011;14477;51.038;4.588;2022-11-20T10:10:49;16.03;;;5.43;;
26908;SDS011;14477;51.038;4.588;2022-11-20T10:18:27;17.92;;;6.07;;
26908;SDS011;14477;51.038;4.588;2022-11-20T10:26:34;17.67;;;6.53;;
26908;SDS011;14477;51.038;4.588;2022-11-20T10:29:18;17.38;;;6.93;;
26908;SDS011;14477;51.038;4.588;2022-11-20T10:31:48;13.45;;;5.43;;
26908;SDS011;14477;51.038;4.588;2022-11-20T10:36:47;19.00;;;6.53;;
26908;SDS011;14477;51.038;4.588;2022-11-20T10:42:43;17.50;;;6.05;;
26908;SDS011;14477;51.038;4.588;2022-11-20T10:47:50;17.25;;;6.22;;
26908;SDS011;14477;51.038;4.588;2022-11-20T10:50:21;18.52;;;6.97;;
26908;SDS011;14477;51.038;4.588;2022-11-20T11:00:46;15.73;;;5.93;;
26908;SDS011;14477;51.038;4.588;2022-11-20T11:03:28;14.27;;;6.20;;
26908;SDS011;14477;51.038;4.588;2022-11-20T11:06:10;13.93;;;5.20;;
26908;SDS011;14477;51.038;4.588;2022-11-20T11:09:00;13.93;;;5.40;;
26908;SDS011;14477;51.038;4.588;2022-11-20T11:11:33;12.65;;;5.07;;
26908;SDS011;14477;51.038;4.588;2022-11-20T11:14:06;14.18;;;5.60;;
26908;SDS011;14477;51.038;4.588;2022-11-20T11:16:33;13.03;;;4.90;;
26908;SDS011;14477;51.038;4.588;2022-11-20T11:19:05;14.82;;;5.85;;
26908;SDS011;14477;51.038;4.588;2022-11-20T11:21:36;15.00;;;5.30;;
26908;SDS011;14477;51.038;4.588;2022-11-20T11:24:14;13.98;;;5.65;;
26908;SDS011;14477;51.038;4.588;2022-11-20T11:26:52;13.30;;;5.68;;
26908;SDS011;14477;51.038;4.588;2022-11-20T11:29:24;14.60;;;5.43;;
26908;SDS011;14477;51.038;4.588;2022-11-20T11:32:07;12.32;;;4.68;;
26908;SDS011;14477;51.038;4.588;2022-11-20T11:35:03;11.55;;;4.88;;
26908;SDS011;14477;51.038;4.588;2022-11-20T11:37:43;11.55;;;5.00;;
26908;SDS011;14477;51.038;4.588;2022-11-20T11:40:12;12.98;;;5.55;;
26908;SDS011;14477;51.038;4.588;2022-11-20T11:42:42;12.07;;;5.27;;
26908;SDS011;14477;51.038;4.588;2022-11-20T11:45:14;12.35;;;5.32;;
26908;SDS011;14477;51.038;4.588;2022-11-20T11:52:33;14.98;;;5.82;;
26908;SDS011;14477;51.038;4.588;2022-11-20T11:55:31;13.47;;;4.83;;
26908;SDS011;14477;51.038;4.588;2022-11-20T12:00:48;9.88;;;4.72;;
26908;SDS011;14477;51.038;4.588;2022-11-20T12:03:37;10.50;;;4.57;;
26908;SDS011;14477;51.038;4.588;2022-11-20T12:06:24;9.25;;;4.45;;
26908;SDS011;14477;51.038;4.588;2022-11-20T12:09:04;9.57;;;4.30;;
26908;SDS011;14477;51.038;4.588;2022-11-20T12:14:27;7.03;;;3.60;;
26908;SDS011;14477;51.038;4.588;2022-11-20T12:17:01;6.90;;;3.58;;
26908;SDS011;14477;51.038;4.588;2022-11-20T12:19:31;5.90;;;2.83;;
26908;SDS011;14477;51.038;4.588;2022-11-20T12:22:07;6.87;;;2.60;;
26908;SDS011;14477;51.038;4.588;2022-11-20T12:24:52;4.03;;;2.40;;
26908;SDS011;14477;51.038;4.588;2022-11-20T12:30:18;3.75;;;1.85;;
26908;SDS011;14477;51.038;4.588;2022-11-20T12:38:45;2.20;;;1.40;;
26908;SDS011;14477;51.038;4.588;2022-11-20T12:56:09;2.67;;;1.50;;
26908;SDS011;14477;51.038;4.588;2022-11-20T13:01:34;2.75;;;1.25;;
26908;SDS011;14477;51.038;4.588;2022-11-20T13:07:17;2.70;;;1.17;;
26908;SDS011;14477;51.038;4.588;2022-11-20T13:09:46;2.25;;;1.30;;
26908;SDS011;14477;51.038;4.588;2022-11-20T13:12:17;1.85;;;1.20;;
26908;SDS011;14477;51.038;4.588;2022-11-20T13:17:36;1.50;;;1.10;;
26908;SDS011;14477;51.038;4.588;2022-11-20T13:20:17;2.72;;;1.02;;
26908;SDS011;14477;51.038;4.588;2022-11-20T13:25:26;2.15;;;1.00;;
26908;SDS011;14477;51.038;4.588;2022-11-20T13:27:57;2.38;;;1.10;;
26908;SDS011;14477;51.038;4.588;2022-11-20T13:30:25;3.23;;;1.10;;
26908;SDS011;14477;51.038;4.588;2022-11-20T13:35:33;2.35;;;1.27;;
26908;SDS011;14477;51.038;4.588;2022-11-20T13:40:28;2.25;;;1.50;;
26908;SDS011;14477;51.038;4.588;2022-11-20T13:43:04;2.33;;;1.47;;
26908;SDS011;14477;51.038;4.588;2022-11-20T13:45:33;2.03;;;1.30;;
26908;SDS011;14477;51.038;4.588;2022-11-20T13:48:03;1.95;;;1.20;;
26908;SDS011;14477;51.038;4.588;2022-11-20T13:53:21;2.78;;;1.50;;
26908;SDS011;14477;51.038;4.588;2022-11-20T13:59:25;3.83;;;2.13;;
26908;SDS011;14477;51.038;4.588;2022-11-20T14:02:12;3.45;;;1.70;;
26908;SDS011;14477;51.038;4.588;2022-11-20T14:04:42;3.30;;;1.70;;
26908;SDS011;14477;51.038;4.588;2022-11-20T14:07:10;1.95;;;1.20;;
26908;SDS011;14477;51.038;4.588;2022-11-20T14:09:37;2.45;;;1.60;;
26908;SDS011;14477;51.038;4.588;2022-11-20T14:12:03;3.30;;;1.50;;
26908;SDS011;14477;51.038;4.588;2022-11-20T14:14:30;2.90;;;1.33;;
26908;SDS011;14477;51.038;4.588;2022-11-20T14:17:32;1.92;;;1.20;;
26908;SDS011;14477;51.038;4.588;2022-11-20T14:20:04;2.63;;;1.40;;
26908;SDS011;14477;51.038;4.588;2022-11-20T14:22:36;3.47;;;1.50;;
26908;SDS011;14477;51.038;4.588;2022-11-20T14:25:06;2.50;;;1.60;;
26908;SDS011;14477;51.038;4.588;2022-11-20T14:27:36;2.63;;;1.75;;
26908;SDS011;14477;51.038;4.588;2022-11-20T14:30:03;3.78;;;1.80;;
26908;SDS011;14477;51.038;4.588;2022-11-20T14:32:31;3.47;;;1.60;;
26908;SDS011;14477;51.038;4.588;2022-11-20T14:35:01;2.47;;;1.70;;
26908;SDS011;14477;51.038;4.588;2022-11-20T14:37:39;3.05;;;1.40;;
26908;SDS011;14477;51.038;4.588;2022-11-20T14:42:48;2.75;;;1.85;;
26908;SDS011;14477;51.038;4.588;2022-11-20T14:45:14;2.70;;;1.57;;
26908;SDS011;14477;51.038;4.588;2022-11-20T14:47:40;3.22;;;1.85;;
26908;SDS011;14477;51.038;4.588;2022-11-20T14:50:14;2.28;;;1.77;;
26908;SDS011;14477;51.038;4.588;2022-11-20T14:52:59;2.13;;;1.40;;
26908;SDS011;14477;51.038;4.588;2022-11-20T14:58:00;1.85;;;1.50;;
26908;SDS011;14477;51.038;4.588;2022-11-20T15:00:28;3.05;;;1.80;;
26908;SDS011;14477;51.038;4.588;2022-11-20T15:02:55;2.60;;;1.67;;
26908;SDS011;14477;51.038;4.588;2022-11-20T15:05:23;2.13;;;1.33;;
26908;SDS011;14477;51.038;4.588;2022-11-20T15:08:13;2.15;;;1.40;;
26908;SDS011;14477;51.038;4.588;2022-11-20T15:10:38;2.55;;;1.50;;
26908;SDS011;14477;51.038;4.588;2022-11-20T15:13:17;1.65;;;1.40;;
26908;SDS011;14477;51.038;4.588;2022-11-20T15:15:52;2.30;;;1.40;;
26908;SDS011;14477;51.038;4.588;2022-11-20T15:18:36;1.87;;;1.40;;
26908;SDS011;14477;51.038;4.588;2022-11-20T15:21:08;3.13;;;1.63;;
26908;SDS011;14477;51.038;4.588;2022-11-20T15:23:36;4.30;;;2.17;;
26908;SDS011;14477;51.038;4.588;2022-11-20T15:26:04;3.20;;;2.10;;
26908;SDS011;14477;51.038;4.588;2022-11-20T15:28:31;3.35;;;1.88;;
26908;SDS011;14477;51.038;4.588;2022-11-20T15:30:57;3.35;;;2.35;;
26908;SDS011;14477;51.038;4.588;2022-11-20T15:33:23;4.07;;;2.47;;
26908;SDS011;14477;51.038;4.588;2022-11-20T15:35:49;3.10;;;1.90;;
26908;SDS011;14477;51.038;4.588;2022-11-20T15:38:14;3.40;;;2.10;;
26908;SDS011;14477;51.038;4.588;2022-11-20T15:40:40;2.95;;;1.90;;
26908;SDS011;14477;51.038;4.588;2022-11-20T15:43:06;3.67;;;2.00;;
26908;SDS011;14477;51.038;4.588;2022-11-20T15:48:41;2.78;;;1.88;;
26908;SDS011;14477;51.038;4.588;2022-11-20T15:54:01;2.58;;;2.00;;
26908;SDS011;14477;51.038;4.588;2022-11-20T15:56:39;3.47;;;1.83;;
26908;SDS011;14477;51.038;4.588;2022-11-20T15:59:05;6.07;;;2.08;;
26908;SDS011;14477;51.038;4.588;2022-11-20T16:01:31;2.90;;;2.05;;
26908;SDS011;14477;51.038;4.588;2022-11-20T16:03:56;2.97;;;2.17;;
26908;SDS011;14477;51.038;4.588;2022-11-20T16:06:22;5.07;;;1.67;;
26908;SDS011;14477;51.038;4.588;2022-11-20T16:08:48;3.10;;;1.90;;
26908;SDS011;14477;51.038;4.588;2022-11-20T16:11:14;3.90;;;2.10;;
26908;SDS011;14477;51.038;4.588;2022-11-20T16:13:42;3.63;;;2.00;;
26908;SDS011;14477;51.038;4.588;2022-11-20T16:16:31;2.90;;;1.90;;
26908;SDS011;14477;51.038;4.588;2022-11-20T16:18:58;3.20;;;2.00;;
26908;SDS011;14477;51.038;4.588;2022-11-20T16:21:25;3.38;;;2.20;;
26908;SDS011;14477;51.038;4.588;2022-11-20T16:24:04;3.17;;;2.00;;
26908;SDS011;14477;51.038;4.588;2022-11-20T16:26:32;4.10;;;2.22;;
26908;SDS011;14477;51.038;4.588;2022-11-20T16:28:58;4.25;;;1.98;;
26908;SDS011;14477;51.038;4.588;2022-11-20T16:31:24;3.22;;;1.70;;
26908;SDS011;14477;51.038;4.588;2022-11-20T16:33:51;3.10;;;2.07;;
26908;SDS011;14477;51.038;4.588;2022-11-20T16:36:18;4.38;;;1.67;;